Time;durP1;ratioP1;P1;durP2;ratioP2;P2;SDS_P1;SDS_P2;PMS_P1;PMS_P2;Temp;Humidity;BMP_temperature;BMP_pressure;BME280_temperature;BME280_humidity;BME280_pressure;Samples;Min_cycle;Max_cycle;Signal;HPM_P1;HPM_P2
2024/03/02 00:00:14;;;;;;;17.80;11.87;;;;;;;7.31;78.76;95120.75;4968028;28;20532;-70
2024/03/02 00:02:46;;;;;;;17.23;12.70;;;;;;;7.37;77.86;95126.53;4977002;28;20622;-70
2024/03/02 00:05:14;;;;;;;14.80;11.00;;;;;;;7.18;78.75;95125.75;4982380;28;20189;-70
2024/03/02 00:07:44;;;;;;;20.57;13.50;;;;;;;7.26;78.80;95125.38;4985277;28;20447;-70
2024/03/02 00:10:11;;;;;;;16.77;13.30;;;;;;;7.42;78.37;95127.13;4975914;28;20997;-70
2024/03/02 00:12:40;;;;;;;17.33;13.50;;;;;;;7.40;78.38;95131.56;4981757;28;20971;-70
2024/03/02 00:15:39;;;;;;;14.10;12.23;;;;;;;7.55;78.42;95129.91;4980878;28;20459;-69
2024/03/02 00:18:05;;;;;;;12.63;11.10;;;;;;;7.58;78.10;95129.78;4980831;28;21266;-70
2024/03/02 00:20:32;;;;;;;10.73;9.63;;;;;;;7.53;78.16;95128.31;4981089;28;20835;-68
2024/03/02 00:23:06;;;;;;;12.20;10.33;;;;;;;7.50;78.96;95120.66;4967486;28;20502;-70
2024/03/02 00:25:40;;;;;;;13.10;11.70;;;;;;;7.36;78.62;95118.75;4986136;28;20997;-70
2024/03/02 00:28:13;;;;;;;11.83;10.33;;;;;;;7.37;78.44;95117.81;4976808;28;20479;-70
2024/03/02 00:30:58;;;;;;;10.60;9.50;;;;;;;7.19;78.49;95114.41;4983768;28;20443;-70
2024/03/02 00:33:27;;;;;;;12.20;10.90;;;;;;;7.06;79.31;95123.78;4986121;28;20451;-70
2024/03/02 00:35:53;;;;;;;12.47;10.27;;;;;;;6.95;79.59;95119.13;4983747;28;20931;-70
2024/03/02 00:38:19;;;;;;;13.00;11.03;;;;;;;6.62;80.57;95125.06;4988158;28;20432;-69
2024/03/02 00:40:45;;;;;;;11.70;10.50;;;;;;;6.61;81.27;95122.53;4977127;28;20194;-70
2024/03/02 00:43:41;;;;;;;11.20;9.83;;;;;;;6.51;80.29;95120.38;4981129;28;20208;-70
2024/03/02 00:46:07;;;;;;;11.87;10.63;;;;;;;6.41;80.82;95121.75;4981235;28;20526;-71
2024/03/02 00:48:35;;;;;;;11.13;9.93;;;;;;;6.11;82.25;95124.88;4967055;28;20567;-70
2024/03/02 00:51:03;;;;;;;14.07;10.93;;;;;;;6.22;82.22;95120.94;4984357;28;20436;-70
2024/03/02 00:53:29;;;;;;;11.37;9.90;;;;;;;6.27;82.44;95121.56;4983954;28;20496;-70
2024/03/02 00:55:55;;;;;;;11.30;10.10;;;;;;;6.10;83.35;95118.00;4983069;28;20463;-70
2024/03/02 00:58:21;;;;;;;11.57;10.40;;;;;;;5.95;83.13;95123.88;4990762;28;20439;-70
2024/03/02 01:00:46;;;;;;;13.00;10.33;;;;;;;5.83;83.69;95125.28;4985586;28;20444;-70
2024/03/02 01:03:12;;;;;;;12.07;10.83;;;;;;;5.80;83.60;95119.38;4986017;28;20274;-70
2024/03/02 01:05:44;;;;;;;12.50;11.20;;;;;;;5.69;83.52;95122.44;4981596;28;20315;-68
2024/03/02 01:08:10;;;;;;;12.40;11.20;;;;;;;6.06;82.35;95123.41;4976883;28;20237;-70
2024/03/02 01:10:35;;;;;;;11.87;10.60;;;;;;;6.13;81.41;95123.03;4976136;28;20443;-69
2024/03/02 01:13:01;;;;;;;12.13;10.93;;;;;;;6.11;81.33;95117.06;4983616;28;20963;-70
2024/03/02 01:15:26;;;;;;;12.27;10.97;;;;;;;5.98;82.21;95112.53;4983280;28;20193;-70
2024/03/02 01:17:51;;;;;;;11.90;10.80;;;;;;;6.12;81.25;95110.94;4977695;28;20173;-69
2024/03/02 01:20:17;;;;;;;17.67;10.87;;;;;;;6.15;81.94;95128.19;4984892;28;20185;-71
2024/03/02 01:22:43;;;;;;;19.50;11.10;;;;;;;6.56;80.13;95127.97;4969985;28;20209;-68
2024/03/02 01:25:08;;;;;;;12.17;10.73;;;;;;;6.36;80.19;95123.72;4981807;28;20185;-70
2024/03/02 01:27:34;;;;;;;13.47;11.00;;;;;;;6.47;79.77;95129.28;4973561;28;20499;-70
2024/03/02 01:29:59;;;;;;;11.57;9.73;;;;;;;6.70;79.00;95128.13;4981612;28;20951;-69
2024/03/02 01:32:25;;;;;;;14.63;10.07;;;;;;;6.77;78.54;95133.91;4987233;28;20209;-69
2024/03/02 01:34:50;;;;;;;11.20;10.00;;;;;;;7.08;77.42;95129.75;4979995;28;20190;-70
2024/03/02 01:37:16;;;;;;;11.20;10.10;;;;;;;7.01;77.39;95126.63;4979544;28;20188;-68
2024/03/02 01:39:41;;;;;;;13.00;11.60;;;;;;;6.87;77.63;95129.06;4973730;28;20271;-69
2024/03/02 01:42:07;;;;;;;12.90;10.90;;;;;;;6.82;78.41;95139.72;4979997;28;20200;-69
2024/03/02 01:44:32;;;;;;;12.17;10.20;;;;;;;6.84;78.06;95131.84;4982315;28;20180;-70
2024/03/02 01:46:57;;;;;;;12.20;10.60;;;;;;;6.85;77.60;95133.50;4979630;28;20180;-70
2024/03/02 01:49:23;;;;;;;12.97;11.00;;;;;;;6.88;77.94;95136.81;4978213;28;20757;-70
2024/03/02 01:51:48;;;;;;;11.90;10.47;;;;;;;6.99;77.73;95133.66;4979194;28;20205;-70
2024/03/02 01:54:13;;;;;;;10.87;9.77;;;;;;;7.05;77.60;95135.13;4982088;28;20262;-69
2024/03/02 01:56:39;;;;;;;13.60;10.47;;;;;;;7.18;76.59;95130.97;4985600;28;20265;-70
2024/03/02 01:59:05;;;;;;;12.60;10.90;;;;;;;6.98;77.37;95134.59;4987286;28;20533;-70
2024/03/02 02:01:31;;;;;;;16.63;11.27;;;;;;;7.06;77.41;95135.03;4989132;28;20207;-70
2024/03/02 02:03:56;;;;;;;12.00;10.13;;;;;;;7.06;77.36;95129.00;4990915;28;20184;-68
2024/03/02 02:06:21;;;;;;;13.67;11.40;;;;;;;6.73;78.57;95130.63;4973376;28;20180;-68
2024/03/02 02:08:47;;;;;;;13.30;11.90;;;;;;;6.71;78.64;95121.19;4986758;28;20208;-70
2024/03/02 02:11:16;;;;;;;12.23;10.90;;;;;;;6.49;79.24;95129.19;4973416;28;20195;-70
2024/03/02 02:13:42;;;;;;;12.67;11.37;;;;;;;6.53;79.21;95125.53;4987540;28;20208;-69
2024/03/02 02:16:08;;;;;;;14.30;11.63;;;;;;;6.55;79.19;95131.50;4989009;28;20448;-70
2024/03/02 02:18:35;;;;;;;12.70;11.20;;;;;;;6.67;79.29;95122.25;4977366;28;20213;-70
2024/03/02 02:21:00;;;;;;;12.93;11.63;;;;;;;6.62;78.69;95117.25;4977135;28;21268;-68
2024/03/02 02:23:25;;;;;;;12.17;11.00;;;;;;;6.58;79.71;95120.91;4984507;28;20499;-69
2024/03/02 02:25:51;;;;;;;12.43;11.17;;;;;;;6.66;79.02;95121.41;4986175;28;20180;-69
2024/03/02 02:28:17;;;;;;;12.87;10.43;;;;;;;6.95;78.13;95126.94;4985494;28;20208;-69
2024/03/02 02:30:43;;;;;;;11.43;10.23;;;;;;;7.08;77.82;95121.94;4986901;28;20272;-70
2024/03/02 02:33:09;;;;;;;12.30;11.03;;;;;;;7.12;77.66;95126.91;4984390;28;20215;-70
2024/03/02 02:35:34;;;;;;;12.87;11.47;;;;;;;7.05;77.70;95120.31;4989086;28;20443;-70
2024/03/02 02:38:00;;;;;;;13.03;11.47;;;;;;;7.09;77.47;95121.03;4984893;28;20842;-71
2024/03/02 02:40:26;;;;;;;13.00;11.70;;;;;;;7.07;77.71;95117.66;4989360;28;20195;-70
2024/03/02 02:42:52;;;;;;;12.13;10.93;;;;;;;7.03;78.09;95116.13;4990482;28;20963;-70
2024/03/02 02:45:17;;;;;;;16.50;12.37;;;;;;;6.73;79.21;95107.16;4978824;28;20185;-70
2024/03/02 02:47:44;;;;;;;14.73;11.83;;;;;;;6.76;78.13;95109.59;4978274;28;20215;-69
2024/03/02 02:50:11;;;;;;;13.70;11.23;;;;;;;6.50;79.52;95115.25;4984712;28;20184;-70
2024/03/02 02:52:39;;;;;;;11.87;10.63;;;;;;;6.37;80.14;95107.16;4980885;28;20967;-71
2024/03/02 02:55:07;;;;;;;12.10;10.70;;;;;;;6.54;79.23;95109.81;4990841;28;20432;-71
2024/03/02 02:57:35;;;;;;;12.30;10.90;;;;;;;6.52;78.79;95103.84;4987410;28;20518;-69
2024/03/02 03:00:05;;;;;;;16.23;12.10;;;;;;;6.61;79.14;95105.13;4983227;28;20511;-69
2024/03/02 03:02:30;;;;;;;27.57;13.17;;;;;;;6.91;78.10;95110.59;4984725;28;21332;-69
2024/03/02 03:04:57;;;;;;;17.10;13.67;;;;;;;7.00;78.12;95112.72;4982920;28;20436;-69
2024/03/02 03:07:22;;;;;;;18.13;12.30;;;;;;;6.93;77.62;95113.97;4975387;28;20188;-70
2024/03/02 03:09:48;;;;;;;13.37;11.13;;;;;;;6.89;77.92;95109.81;4983225;28;20457;-68
2024/03/02 03:12:13;;;;;;;23.23;14.23;;;;;;;7.00;77.37;95115.34;4987005;28;20673;-70
2024/03/02 03:14:41;;;;;;;14.67;11.77;;;;;;;7.10;77.00;95107.06;4983176;28;20239;-70
2024/03/02 03:17:08;;;;;;;14.57;12.30;;;;;;;6.90;78.27;95113.28;4982729;28;20177;-70
2024/03/02 03:19:33;;;;;;;16.03;12.23;;;;;;;7.02;77.36;95110.06;4985203;28;20913;-71
2024/03/02 03:21:59;;;;;;;17.57;11.90;;;;;;;7.07;77.22;95108.06;4985169;28;20467;-69
2024/03/02 03:24:24;;;;;;;12.57;11.27;;;;;;;7.05;77.10;95117.72;4988803;28;20189;-70
2024/03/02 03:26:49;;;;;;;12.03;10.70;;;;;;;7.06;76.89;95111.56;4989929;28;20212;-70
2024/03/02 03:29:15;;;;;;;14.87;12.47;;;;;;;6.98;77.51;95113.72;4970794;28;20754;-70
2024/03/02 03:31:40;;;;;;;14.07;11.33;;;;;;;6.87;77.69;95108.22;4982772;28;20356;-69
2024/03/02 03:34:05;;;;;;;16.57;12.33;;;;;;;6.60;78.49;95108.66;4980523;28;20177;-69
2024/03/02 03:36:31;;;;;;;16.47;11.67;;;;;;;6.27;80.21;95114.59;4984906;28;20188;-70
2024/03/02 03:38:57;;;;;;;16.87;12.30;;;;;;;6.40;79.84;95107.00;4986498;28;20706;-70
2024/03/02 03:41:23;;;;;;;13.90;10.90;;;;;;;6.02;81.49;95112.28;4987398;28;20177;-70
2024/03/02 03:43:48;;;;;;;15.50;12.80;;;;;;;6.13;81.02;95110.03;4980996;28;20436;-70
2024/03/02 03:46:13;;;;;;;14.13;11.20;;;;;;;6.30;80.09;95113.59;4990319;28;20188;-70
2024/03/02 03:48:39;;;;;;;14.43;11.60;;;;;;;6.03;81.25;95113.16;4990178;28;20241;-70
2024/03/02 03:51:04;;;;;;;15.00;11.60;;;;;;;5.98;81.55;95120.34;4992341;28;20184;-70
2024/03/02 03:53:30;;;;;;;15.13;12.13;;;;;;;6.08;81.71;95117.22;4990396;28;20205;-69
2024/03/02 03:55:55;;;;;;;15.97;11.40;;;;;;;5.91;82.35;95122.34;4991211;28;20192;-70
2024/03/02 03:58:20;;;;;;;17.30;11.70;;;;;;;6.38;80.43;95121.91;4982257;28;20173;-70
2024/03/02 04:00:46;;;;;;;16.17;11.70;;;;;;;6.63;79.37;95118.09;4978159;28;20267;-69
2024/03/02 04:03:11;;;;;;;16.13;12.90;;;;;;;6.78;78.71;95120.78;4985657;28;20244;-70
2024/03/02 04:05:38;;;;;;;16.90;13.43;;;;;;;6.74;78.82;95116.66;4987782;28;20719;-69
2024/03/02 04:08:04;;;;;;;18.20;12.43;;;;;;;6.64;79.75;95118.03;4986428;28;20235;-70
2024/03/02 04:10:30;;;;;;;20.43;13.13;;;;;;;6.70;79.63;95116.88;4982784;28;20803;-70
2024/03/02 04:12:55;;;;;;;17.60;13.17;;;;;;;6.78;79.02;95120.78;4975556;28;20564;-69
2024/03/02 04:15:23;;;;;;;18.17;14.93;;;;;;;6.85;79.31;95120.47;4993104;28;20428;-70
2024/03/02 04:17:48;;;;;;;18.10;13.77;;;;;;;6.82;79.40;95128.47;4991757;28;20173;-69
2024/03/02 04:20:14;;;;;;;21.63;15.90;;;;;;;6.85;78.86;95128.28;4989098;28;20443;-69
2024/03/02 04:22:39;;;;;;;17.40;13.57;;;;;;;6.88;79.27;95123.78;4991163;28;20484;-69
2024/03/02 04:25:05;;;;;;;16.20;12.80;;;;;;;6.92;78.83;95129.69;4987472;28;20165;-70
2024/03/02 04:27:33;;;;;;;16.67;13.60;;;;;;;6.88;79.03;95134.22;4980712;28;20188;-69
2024/03/02 04:30:00;;;;;;;16.90;14.20;;;;;;;6.93;78.73;95137.44;4984128;28;20208;-69
2024/03/02 04:32:26;;;;;;;17.87;13.90;;;;;;;6.94;78.60;95133.06;4989638;28;20459;-69
2024/03/02 04:34:51;;;;;;;20.97;14.30;;;;;;;6.96;78.56;95134.66;5006100;28;20896;-69
2024/03/02 04:37:17;;;;;;;18.03;14.00;;;;;;;6.85;78.99;95136.97;4991698;28;20445;-69
2024/03/02 04:39:42;;;;;;;19.03;14.60;;;;;;;6.93;79.20;95136.59;4990485;28;20183;-70
2024/03/02 04:42:08;;;;;;;20.70;14.43;;;;;;;7.02;78.60;95135.31;4989119;28;20241;-70
2024/03/02 04:44:33;;;;;;;17.17;13.93;;;;;;;7.03;78.12;95130.00;5003978;28;20771;-70
2024/03/02 04:46:58;;;;;;;18.87;14.47;;;;;;;6.99;77.99;95136.28;4997324;28;20192;-70
2024/03/02 04:49:24;;;;;;;18.90;14.43;;;;;;;6.90;78.22;95135.00;4969874;28;20703;-67
2024/03/02 04:51:49;;;;;;;25.00;14.47;;;;;;;6.97;78.91;95141.59;4979497;28;20205;-69
2024/03/02 04:54:15;;;;;;;16.10;12.37;;;;;;;6.94;78.42;95128.69;4964562;28;20188;-69
2024/03/02 04:56:44;;;;;;;22.07;17.47;;;;;;;7.03;77.81;95132.59;4981577;28;20676;-70
2024/03/02 04:59:10;;;;;;;17.00;14.27;;;;;;;7.00;78.25;95136.22;4984708;28;20175;-70
2024/03/02 05:01:36;;;;;;;16.90;13.30;;;;;;;6.71;79.06;95129.84;4985230;28;20595;-69
2024/03/02 05:04:01;;;;;;;16.23;12.87;;;;;;;6.76;79.12;95134.84;4971948;28;20462;-69
2024/03/02 05:06:27;;;;;;;14.57;11.63;;;;;;;6.65;79.30;95139.72;4973953;28;20231;-70
2024/03/02 05:08:52;;;;;;;17.43;13.97;;;;;;;6.88;78.86;95131.63;4980904;28;20716;-70
2024/03/02 05:14:01;;;;;;;15.40;12.60;;;;;;;6.79;78.81;95137.28;4985037;28;20280;-69
2024/03/02 05:16:27;;;;;;;17.93;13.50;;;;;;;6.74;79.11;95129.69;4978562;28;20531;-70
2024/03/02 05:18:52;;;;;;;20.43;13.40;;;;;;;6.75;79.40;95140.94;4975564;28;20254;-70
2024/03/02 05:21:18;;;;;;;16.70;13.30;;;;;;;6.70;79.05;95140.34;4977652;28;20180;-70
2024/03/02 05:23:44;;;;;;;18.23;14.20;;;;;;;6.77;78.77;95139.09;4975245;28;20208;-70
2024/03/02 05:26:12;;;;;;;18.50;13.37;;;;;;;6.66;79.29;95142.25;4984681;28;20789;-70
2024/03/02 05:28:38;;;;;;;19.40;14.30;;;;;;;6.34;80.12;95149.00;4977694;28;20681;-69
2024/03/02 05:31:04;;;;;;;15.50;12.97;;;;;;;6.60;79.99;95137.34;4981990;28;20502;-68
2024/03/02 05:33:31;;;;;;;16.00;12.40;;;;;;;6.74;78.96;95140.09;4976411;28;20958;-69
2024/03/02 05:35:56;;;;;;;20.03;13.53;;;;;;;6.79;78.18;95140.72;4981952;28;20665;-69
2024/03/02 05:38:22;;;;;;;14.70;13.20;;;;;;;6.84;78.63;95139.66;4984374;28;20434;-70
2024/03/02 05:40:47;;;;;;;15.10;12.53;;;;;;;6.78;77.79;95140.81;4983666;28;20598;-69
2024/03/02 05:43:13;;;;;;;25.67;13.37;;;;;;;6.72;78.57;95149.75;4984160;28;20204;-69
2024/03/02 05:45:39;;;;;;;15.97;12.37;;;;;;;6.71;78.15;95148.09;4972806;28;20186;-69
2024/03/02 05:48:09;;;;;;;15.93;12.60;;;;;;;6.68;78.28;95150.81;4984816;28;20235;-69
2024/03/02 05:50:34;;;;;;;15.57;12.90;;;;;;;6.68;78.39;95147.38;4979447;28;20420;-70
2024/03/02 05:52:59;;;;;;;23.50;13.33;;;;;;;6.70;78.21;95158.59;4988778;28;20496;-68
2024/03/02 05:55:25;;;;;;;13.87;11.30;;;;;;;6.64;78.25;95162.34;5001472;28;20793;-70
2024/03/02 06:00:31;;;;;;;21.37;13.40;;;;;;;6.81;78.23;95166.72;4999733;28;20188;-70
2024/03/02 06:02:56;;;;;;;14.17;12.67;;;;;;;6.67;78.38;95166.56;5006544;28;20465;-69
2024/03/02 06:05:22;;;;;;;18.10;12.40;;;;;;;6.77;78.08;95171.22;5002789;28;20181;-70
2024/03/02 06:07:48;;;;;;;17.23;12.33;;;;;;;6.67;78.60;95171.78;5008056;28;20168;-68
2024/03/02 06:10:14;;;;;;;15.87;12.60;;;;;;;6.74;77.94;95174.00;4993897;28;20860;-71
2024/03/02 06:12:39;;;;;;;16.43;12.93;;;;;;;6.50;78.90;95164.78;4983874;28;20924;-70
2024/03/02 06:15:05;;;;;;;13.13;11.40;;;;;;;6.29;79.60;95167.47;4971534;28;20466;-70
2024/03/02 06:17:30;;;;;;;14.37;11.80;;;;;;;6.26;79.92;95175.44;4975361;28;20385;-70
2024/03/02 06:19:56;;;;;;;14.97;13.37;;;;;;;6.31;79.87;95168.25;4984272;28;20180;-69
2024/03/02 06:22:24;;;;;;;13.80;11.17;;;;;;;6.54;79.09;95168.91;4986576;28;20279;-70
2024/03/02 06:24:50;;;;;;;20.30;13.10;;;;;;;6.56;79.03;95167.91;4981146;28;20184;-70
2024/03/02 06:27:15;;;;;;;17.00;13.80;;;;;;;6.40;79.65;95173.91;4985040;28;20446;-68
2024/03/02 06:29:41;;;;;;;18.83;13.07;;;;;;;6.52;78.92;95173.34;4977796;28;20212;-70
2024/03/02 06:32:07;;;;;;;18.33;13.70;;;;;;;6.69;78.53;95168.16;4978690;28;20232;-69
2024/03/02 06:34:32;;;;;;;18.27;13.87;;;;;;;6.66;78.82;95170.06;4964079;28;20443;-70
2024/03/02 06:36:58;;;;;;;16.90;12.80;;;;;;;6.33;80.17;95173.34;4982320;28;20271;-69
2024/03/02 06:39:23;;;;;;;15.37;12.90;;;;;;;6.53;79.37;95172.44;4989423;28;20212;-70
2024/03/02 06:41:49;;;;;;;23.63;13.90;;;;;;;6.68;78.31;95174.28;4969584;28;20201;-70
2024/03/02 06:44:14;;;;;;;17.03;12.87;;;;;;;6.63;78.39;95171.06;4968202;28;20267;-70
2024/03/02 06:46:39;;;;;;;18.83;13.60;;;;;;;6.76;78.20;95173.94;4976265;28;20177;-70
2024/03/02 06:49:05;;;;;;;24.10;13.80;;;;;;;6.82;78.08;95175.38;4985296;28;21083;-70
2024/03/02 06:51:30;;;;;;;15.13;13.53;;;;;;;6.79;78.57;95179.00;4987225;28;20184;-68
2024/03/02 06:53:56;;;;;;;17.50;14.67;;;;;;;6.80;78.33;95185.88;4976355;28;20185;-70
2024/03/02 06:56:22;;;;;;;19.27;13.97;;;;;;;6.88;78.11;95182.94;4979521;28;20185;-69
2024/03/02 06:58:47;;;;;;;16.30;13.20;;;;;;;7.00;77.39;95184.94;4984746;28;20185;-69
2024/03/02 07:01:12;;;;;;;16.60;13.67;;;;;;;6.95;77.99;95177.31;4982869;28;20185;-70
2024/03/02 07:03:39;;;;;;;18.17;14.90;;;;;;;7.06;77.56;95181.16;4981734;28;20200;-69
2024/03/02 07:06:05;;;;;;;21.77;17.23;;;;;;;7.02;76.93;95184.88;4987402;28;20189;-69
2024/03/02 07:08:30;;;;;;;21.33;15.97;;;;;;;7.10;77.57;95180.09;4983596;28;20474;-68
2024/03/02 07:10:56;;;;;;;29.17;15.00;;;;;;;7.12;76.45;95184.31;4968384;28;20447;-70
2024/03/02 07:13:22;;;;;;;37.63;14.50;;;;;;;7.08;77.14;95187.16;4985748;28;20264;-70
2024/03/02 07:18:25;;;;;;;26.57;15.60;;;;;;;7.05;76.85;95189.91;4985481;28;20648;-71
2024/03/02 07:20:50;;;;;;;17.63;13.10;;;;;;;6.90;77.05;95188.91;4987007;28;20443;-68
2024/03/02 07:23:15;;;;;;;20.07;13.73;;;;;;;6.62;78.50;95187.63;4984199;28;20237;-69
2024/03/02 07:25:41;;;;;;;18.33;14.63;;;;;;;6.75;77.72;95182.66;4992913;28;20224;-71
2024/03/02 07:28:07;;;;;;;21.40;14.77;;;;;;;6.88;78.09;95191.59;4990324;28;20358;-69
2024/03/02 07:30:33;;;;;;;21.27;15.20;;;;;;;6.99;77.51;95184.09;4987254;28;20185;-71
2024/03/02 07:32:59;;;;;;;16.17;13.67;;;;;;;6.97;77.43;95185.09;4995586;28;20451;-69
2024/03/02 07:35:27;;;;;;;19.90;15.00;;;;;;;7.01;76.56;95197.03;4994446;28;20446;-69
2024/03/02 07:37:53;;;;;;;17.67;13.83;;;;;;;6.86;77.57;95193.41;4994180;28;20204;-69
2024/03/02 07:40:20;;;;;;;18.57;15.03;;;;;;;7.05;77.24;95189.91;4981281;28;20498;-69
2024/03/02 07:42:45;;;;;;;19.60;16.00;;;;;;;6.98;77.34;95192.81;4985150;28;21307;-69
2024/03/02 07:45:11;;;;;;;17.73;14.73;;;;;;;7.04;77.26;95183.00;4987377;28;20177;-70
2024/03/02 07:47:37;;;;;;;18.73;14.63;;;;;;;7.13;77.14;95180.78;4985846;28;20188;-68
2024/03/02 07:50:02;;;;;;;21.07;14.13;;;;;;;6.69;78.18;95188.19;4970408;28;20735;-69
2024/03/02 07:52:28;;;;;;;28.80;15.30;;;;;;;6.90;78.16;95189.75;4974434;28;20211;-69
2024/03/02 07:54:55;;;;;;;16.90;13.60;;;;;;;7.01;77.93;95184.00;4984658;28;20200;-70
2024/03/02 07:57:20;;;;;;;19.90;16.40;;;;;;;7.03;77.79;95191.75;4986822;28;20435;-70
2024/03/02 07:59:46;;;;;;;21.70;14.37;;;;;;;7.15;77.47;95188.53;4989247;28;21317;-70
2024/03/02 08:02:12;;;;;;;18.67;14.77;;;;;;;6.99;77.82;95191.03;4975578;28;21026;-70
2024/03/02 08:04:38;;;;;;;20.30;14.07;;;;;;;6.79;78.23;95199.84;4978764;28;20482;-70
2024/03/02 08:07:04;;;;;;;20.83;13.70;;;;;;;6.75;78.95;95190.47;4981134;28;20239;-68
2024/03/02 08:09:29;;;;;;;34.17;15.10;;;;;;;7.10;77.19;95186.16;4984104;28;20208;-69
2024/03/02 08:11:56;;;;;;;21.73;15.70;;;;;;;7.23;76.47;95183.78;4997147;28;20540;-69
2024/03/02 08:14:22;;;;;;;26.00;15.60;;;;;;;6.52;79.32;95189.84;5001924;28;20783;-71
2024/03/02 08:16:47;;;;;;;24.33;15.10;;;;;;;6.68;78.99;95189.09;4997860;28;20424;-69
2024/03/02 08:19:13;;;;;;;33.97;15.03;;;;;;;7.11;77.30;95192.19;4976860;28;20184;-69
2024/03/02 08:21:38;;;;;;;25.73;15.50;;;;;;;6.89;77.90;95190.66;4982179;28;20595;-69
2024/03/02 08:24:04;;;;;;;20.83;15.90;;;;;;;6.86;79.25;95197.81;4984842;28;20287;-68
2024/03/02 08:26:31;;;;;;;17.47;13.50;;;;;;;6.85;79.22;95193.50;4985889;28;20193;-69
2024/03/02 08:29:01;;;;;;;18.50;13.40;;;;;;;6.99;77.52;95197.13;4981233;28;20475;-70
2024/03/02 08:31:27;;;;;;;19.93;13.97;;;;;;;7.09;77.98;95194.06;4971875;28;20451;-68
2024/03/02 08:33:53;;;;;;;17.23;14.13;;;;;;;7.17;77.80;95199.75;4980647;28;20924;-70
2024/03/02 08:36:19;;;;;;;19.33;14.03;;;;;;;7.19;76.90;95195.28;4980981;28;20443;-69
2024/03/02 08:38:45;;;;;;;18.80;14.43;;;;;;;7.14;77.40;95198.13;4986017;28;20199;-67
2024/03/02 08:41:13;;;;;;;22.90;12.83;;;;;;;7.16;77.30;95196.28;4988947;28;20515;-69
2024/03/02 08:43:40;;;;;;;19.13;13.93;;;;;;;7.33;76.10;95192.84;4993444;28;20299;-67
2024/03/02 08:46:06;;;;;;;22.30;15.07;;;;;;;7.32;76.13;95191.16;4984727;28;20440;-68
2024/03/02 08:48:31;;;;;;;21.40;14.03;;;;;;;7.34;76.89;95194.50;4980397;28;20978;-69
2024/03/02 08:50:56;;;;;;;19.00;13.53;;;;;;;7.38;76.55;95200.44;4985231;28;20185;-68
2024/03/02 08:53:22;;;;;;;17.80;13.97;;;;;;;7.51;75.93;95193.69;4985019;28;20576;-68
2024/03/02 08:55:47;;;;;;;17.77;13.60;;;;;;;7.28;76.14;95191.38;4977833;28;20217;-68
2024/03/02 08:58:13;;;;;;;18.20;11.73;;;;;;;7.04;77.11;95193.44;4973535;28;20177;-67
2024/03/02 09:00:39;;;;;;;18.83;12.20;;;;;;;7.56;82.63;95199.50;4977324;28;20193;-68
2024/03/02 09:03:04;;;;;;;11.83;7.53;;;;;;;10.61;86.90;95180.38;4979106;28;20220;-67
2024/03/02 09:05:31;;;;;;;20.87;8.60;;;;;;;11.86;75.40;95184.34;4988568;28;20188;-68
2024/03/02 09:07:56;;;;;;;17.80;11.23;;;;;;;9.47;67.64;95186.41;4985494;28;20196;-69
2024/03/02 09:10:22;;;;;;;16.30;12.13;;;;;;;8.64;70.89;95199.84;4981425;28;20441;-68
2024/03/02 09:12:47;;;;;;;16.70;12.50;;;;;;;8.23;72.19;95199.47;4984517;28;20319;-69
2024/03/02 09:15:13;;;;;;;15.50;11.70;;;;;;;7.97;73.45;95195.66;4989093;28;20188;-70
2024/03/02 09:17:38;;;;;;;13.90;10.90;;;;;;;7.81;73.56;95196.44;4983096;28;20254;-67
2024/03/02 09:20:05;;;;;;;14.97;11.70;;;;;;;7.88;72.95;95196.97;4985618;28;20181;-68
2024/03/02 09:22:32;;;;;;;15.70;12.03;;;;;;;7.53;74.81;95202.25;4973692;28;20614;-67
2024/03/02 09:24:58;;;;;;;14.37;12.80;;;;;;;7.43;75.63;95193.22;4970037;28;20465;-69
2024/03/02 09:27:23;;;;;;;20.10;12.77;;;;;;;7.58;76.16;95188.97;4984346;28;20935;-68
2024/03/02 09:29:48;;;;;;;16.30;12.03;;;;;;;7.52;76.31;95194.50;4982432;28;20485;-69
2024/03/02 09:32:14;;;;;;;17.80;12.40;;;;;;;7.83;75.27;95197.22;4984254;28;20204;-67
2024/03/02 09:34:40;;;;;;;13.93;12.00;;;;;;;7.84;75.07;95192.81;4978839;28;20186;-68
2024/03/02 09:37:06;;;;;;;16.40;12.57;;;;;;;7.98;74.35;95194.72;4981243;28;20228;-66
2024/03/02 09:39:31;;;;;;;20.60;13.43;;;;;;;7.94;74.15;95183.59;4992039;28;20243;-69
2024/03/02 09:41:58;;;;;;;18.10;12.00;;;;;;;8.00;74.31;95178.03;4980801;28;20844;-71
2024/03/02 09:44:25;;;;;;;16.50;12.00;;;;;;;8.01;74.86;95178.91;4981812;28;20185;-68
2024/03/02 09:46:50;;;;;;;17.10;13.37;;;;;;;8.35;73.19;95172.69;4979502;28;20444;-69
2024/03/02 09:49:16;;;;;;;18.67;12.00;;;;;;;8.35;72.56;95182.28;4966339;28;20472;-71
2024/03/02 09:51:47;;;;;;;16.80;10.83;;;;;;;8.41;72.53;95171.53;4982992;28;20317;-69
2024/03/02 09:54:13;;;;;;;17.80;11.67;;;;;;;8.43;72.13;95172.28;4973329;28;20180;-69
2024/03/02 09:56:39;;;;;;;18.07;11.30;;;;;;;8.59;71.74;95175.72;4974726;28;20439;-68
2024/03/02 09:59:04;;;;;;;17.00;13.43;;;;;;;8.68;72.11;95172.59;4983245;28;20181;-68
2024/03/02 10:01:30;;;;;;;15.77;12.23;;;;;;;8.40;72.45;95175.91;4965887;28;20495;-68
2024/03/02 10:03:59;;;;;;;13.50;11.13;;;;;;;8.50;72.45;95165.78;4976782;28;20198;-68
2024/03/02 10:06:26;;;;;;;11.13;9.50;;;;;;;8.73;71.22;95169.72;4979582;28;20862;-69
2024/03/02 10:08:52;;;;;;;12.37;10.57;;;;;;;8.37;72.20;95170.81;4981178;28;21214;-70
2024/03/02 10:11:29;;;;;;;13.40;11.33;;;;;;;8.62;72.59;95175.59;4981120;28;20451;-67
2024/03/02 10:14:08;;;;;;;15.47;11.30;;;;;;;8.50;72.29;95172.78;4983980;28;20513;-66
2024/03/02 10:16:35;;;;;;;13.80;11.90;;;;;;;8.69;71.51;95155.13;4987488;28;20473;-69
2024/03/02 10:19:18;;;;;;;13.20;10.87;;;;;;;8.46;73.06;95169.53;4982454;28;20930;-69
2024/03/02 10:21:47;;;;;;;18.57;11.70;;;;;;;8.76;72.41;95160.88;4984860;28;21119;-69
2024/03/02 10:24:12;;;;;;;15.80;11.53;;;;;;;9.02;71.17;95162.00;4989388;28;21719;-67
2024/03/02 10:26:38;;;;;;;16.40;11.47;;;;;;;9.43;70.10;95151.75;4975362;28;20514;-67
2024/03/02 10:29:04;;;;;;;15.33;12.30;;;;;;;8.97;71.41;95159.66;4995283;28;20281;-69
2024/03/02 10:31:30;;;;;;;15.53;12.97;;;;;;;8.76;71.49;95151.25;4992018;28;20518;-70
2024/03/02 10:33:55;;;;;;;12.43;11.10;;;;;;;9.36;69.84;95153.03;4993639;28;20649;-73
2024/03/02 10:36:21;;;;;;;14.73;13.10;;;;;;;8.90;70.67;95158.31;4991113;28;20485;-68
2024/03/02 10:38:48;;;;;;;14.53;11.57;;;;;;;8.84;71.19;95166.53;4990967;28;20177;-69
2024/03/02 10:41:18;;;;;;;18.53;12.70;;;;;;;8.90;71.21;95158.31;4993502;28;20173;-69
2024/03/02 10:43:43;;;;;;;18.83;10.60;;;;;;;9.54;69.01;95144.09;4994604;28;20451;-69
2024/03/02 10:46:11;;;;;;;13.90;12.50;;;;;;;8.97;70.30;95143.09;4992959;28;20424;-67
2024/03/02 10:48:40;;;;;;;18.50;12.77;;;;;;;9.30;69.27;95140.28;4995520;28;20660;-69
2024/03/02 10:51:06;;;;;;;20.10;13.33;;;;;;;9.08;70.11;95141.56;4995055;28;20416;-69
2024/03/02 10:53:32;;;;;;;22.10;13.53;;;;;;;9.03;71.02;95137.53;4989966;28;20435;-67
2024/03/02 10:56:02;;;;;;;37.97;14.40;;;;;;;9.51;70.13;95123.31;4989808;28;20164;-69
2024/03/02 10:58:33;;;;;;;13.97;12.50;;;;;;;9.37;69.40;95111.97;4989516;28;20181;-69
2024/03/02 11:01:02;;;;;;;15.03;12.20;;;;;;;10.18;67.06;95118.34;4989088;28;20502;-68
2024/03/02 11:03:35;;;;;;;14.83;12.60;;;;;;;10.14;66.82;95116.00;4990111;28;20444;-69
2024/03/02 11:06:01;;;;;;;14.10;12.60;;;;;;;10.25;65.95;95110.06;4988683;28;20423;-68
2024/03/02 11:08:28;;;;;;;19.37;12.63;;;;;;;10.68;65.80;95104.75;4989810;28;20556;-70
2024/03/02 11:11:00;;;;;;;15.13;12.03;;;;;;;10.64;65.20;95095.38;4989429;28;20487;-67
2024/03/02 11:13:31;;;;;;;15.10;11.37;;;;;;;10.65;65.31;95095.25;4988168;28;20537;-70
2024/03/02 11:16:10;;;;;;;12.23;10.40;;;;;;;10.90;64.68;95088.41;4987622;28;20514;-69
2024/03/02 11:18:36;;;;;;;13.00;11.27;;;;;;;10.75;65.07;95080.63;4987820;28;20510;-67
2024/03/02 11:21:03;;;;;;;12.67;11.20;;;;;;;11.37;62.83;95077.34;4987449;28;20440;-68
2024/03/02 11:23:36;;;;;;;14.40;10.17;;;;;;;10.77;64.40;95075.25;4978302;28;20550;-69
2024/03/02 11:26:21;;;;;;;12.17;10.83;;;;;;;11.32;63.45;95063.69;4975183;28;20451;-67
2024/03/02 11:28:47;;;;;;;11.93;10.10;;;;;;;10.65;63.91;95066.41;4977195;28;20471;-69